createdAt,value
2022-08-24T00:01:35.675Z,25.80
2022-08-24T00:06:38.183Z,21.85
2022-08-24T00:11:40.798Z,20.35
2022-08-24T00:16:43.389Z,16.80
2022-08-24T00:21:45.958Z,19.45
2022-08-24T00:26:48.987Z,18.77
2022-08-24T00:31:51.718Z,18.20
2022-08-24T00:36:54.936Z,16.83
2022-08-24T00:41:57.618Z,22.33
2022-08-24T00:47:12.597Z,23.85
2022-08-24T00:52:33.509Z,24.88
2022-08-24T00:57:42.464Z,29.52
2022-08-24T01:02:48.953Z,30.27
2022-08-24T01:07:51.960Z,30.75
2022-08-24T01:13:01.573Z,28.83
2022-08-24T01:18:25.296Z,38.30
2022-08-24T01:23:44.141Z,42.75
2022-08-24T01:28:50.538Z,42.00
2022-08-24T01:33:55.867Z,36.38
2022-08-24T01:39:02.587Z,39.83
2022-08-24T01:44:05.607Z,35.05
2022-08-24T01:49:08.969Z,35.20
2022-08-24T01:54:12.410Z,29.23
2022-08-24T01:59:15.630Z,35.10
2022-08-24T02:04:20.237Z,27.50
2022-08-24T02:09:23.806Z,32.78
2022-08-24T02:14:32.964Z,24.88
2022-08-24T02:19:38.558Z,29.42
2022-08-24T02:24:42.654Z,22.70
2022-08-24T02:29:46.959Z,24.70
2022-08-24T02:34:49.709Z,27.85
2022-08-24T02:39:57.363Z,29.40
2022-08-24T02:45:02.040Z,26.10
2022-08-24T02:50:07.539Z,24.58
2022-08-24T02:55:15.265Z,23.88
2022-08-24T03:00:22.898Z,25.58
2022-08-24T03:05:29.688Z,27.35
2022-08-24T03:10:33.181Z,22.02
2022-08-24T03:15:36.153Z,24.52
2022-08-24T03:20:39.312Z,22.85
2022-08-24T03:25:42.269Z,24.00
2022-08-24T03:30:46.859Z,25.08
2022-08-24T03:35:53.425Z,19.65
2022-08-24T03:40:57.799Z,19.83
2022-08-24T03:46:03.014Z,21.70
2022-08-24T03:51:13.533Z,25.58
2022-08-24T03:56:17.102Z,22.27
2022-08-24T04:01:20.375Z,20.40
2022-08-24T04:06:25.191Z,22.90
2022-08-24T04:11:30.052Z,24.30
2022-08-24T04:16:33.751Z,23.52
2022-08-24T04:21:59.305Z,23.98
2022-08-24T04:27:02.306Z,22.67
2022-08-24T04:32:05.264Z,27.60
2022-08-24T04:37:11.325Z,22.30
2022-08-24T04:42:14.576Z,26.88
2022-08-24T04:47:18.905Z,31.33
2022-08-24T04:52:21.756Z,20.30
2022-08-24T04:57:24.278Z,23.95
2022-08-24T05:02:27.770Z,22.45
2022-08-24T05:07:32.334Z,23.20
2022-08-24T05:12:34.790Z,32.50
2022-08-24T05:17:41.492Z,25.23
2022-08-24T05:22:46.344Z,25.83
2022-08-24T05:27:49.144Z,33.75
2022-08-24T05:32:51.947Z,30.45
2022-08-24T05:37:55.202Z,27.80
2022-08-24T05:43:00.911Z,28.98
2022-08-24T05:48:03.920Z,23.83
2022-08-24T05:53:25.101Z,25.58
2022-08-24T05:58:30.757Z,26.92
2022-08-24T06:03:38.768Z,26.45
2022-08-24T06:08:47.120Z,26.70
2022-08-24T06:13:56.251Z,30.17
2022-08-24T06:19:06.538Z,32.15
2022-08-24T06:24:09.494Z,30.58
2022-08-24T06:29:12.278Z,25.98
2022-08-24T06:34:20.987Z,16.30
2022-08-24T06:39:24.181Z,28.58
2022-08-24T06:44:31.301Z,27.83
2022-08-24T06:49:44.855Z,29.55
2022-08-24T06:54:47.486Z,24.60
2022-08-24T06:59:50.071Z,22.67
2022-08-24T07:04:54.396Z,21.08
2022-08-24T07:10:15.290Z,19.27
2022-08-24T07:15:19.419Z,14.60
2022-08-24T07:20:32.589Z,17.52
2022-08-24T07:25:55.904Z,12.75
2022-08-24T07:30:58.829Z,12.85
2022-08-24T07:36:03.244Z,19.17
2022-08-24T07:41:35.358Z,22.30
2022-08-24T07:46:28.830Z,16.30
2022-08-24T07:56:42.556Z,13.70
2022-08-24T08:01:45.481Z,18.48
2022-08-24T08:06:48.009Z,18.85
2022-08-24T08:11:51.037Z,13.02
2022-08-24T08:16:53.697Z,11.98
2022-08-24T08:22:15.301Z,19.17
2022-08-24T08:27:37.837Z,15.70
2022-08-24T08:32:40.626Z,15.70
2022-08-24T08:37:43.297Z,12.82
2022-08-24T08:43:10.615Z,11.80
2022-08-24T08:48:39.944Z,14.85
2022-08-24T08:54:00.635Z,10.32
2022-08-24T08:59:30.550Z,11.98
2022-08-24T09:05:07.746Z,12.45
2022-08-24T09:10:10.432Z,7.32
2022-08-24T09:15:32.775Z,9.68
2022-08-24T09:20:53.756Z,13.15
2022-08-24T09:26:02.406Z,10.82
2022-08-24T09:31:17.537Z,13.55
2022-08-24T09:36:38.728Z,12.15
2022-08-24T09:42:00.163Z,15.05
2022-08-24T09:47:29.006Z,10.07
2022-08-24T09:52:50.544Z,13.35
2022-08-24T09:58:04.535Z,13.63
2022-08-24T10:03:36.457Z,10.80
2022-08-24T10:09:06.898Z,13.00
2022-08-24T10:14:09.432Z,14.40
2022-08-24T10:19:11.903Z,11.77
2022-08-24T10:24:35.696Z,16.05
2022-08-24T10:29:53.463Z,15.50
2022-08-24T10:35:04.843Z,14.02
2022-08-24T10:40:33.455Z,9.27
2022-08-24T10:45:58.009Z,13.90
2022-08-24T10:51:19.048Z,13.43
2022-08-24T10:56:40.469Z,15.40
2022-08-24T11:02:12.489Z,16.63
2022-08-24T11:07:18.082Z,9.52
2022-08-24T11:12:42.001Z,9.63
2022-08-24T11:18:00.681Z,13.27
2022-08-24T11:23:07.942Z,18.80
2022-08-24T11:28:20.549Z,18.02
2022-08-24T11:33:49.695Z,14.18
2022-08-24T11:39:10.385Z,20.60
2022-08-24T11:44:31.634Z,14.35
2022-08-24T11:49:49.383Z,16.30
2022-08-24T11:55:14.712Z,14.02
2022-08-24T12:00:23.562Z,16.23
2022-08-24T12:05:26.142Z,11.98
2022-08-24T12:11:01.500Z,20.60
2022-08-24T12:16:31.641Z,11.38
2022-08-24T12:21:39.078Z,20.75
2022-08-24T12:26:46.819Z,14.07
2022-08-24T12:32:02.053Z,18.13
2022-08-24T12:37:27.041Z,16.23
2022-08-24T12:42:39.890Z,18.63
2022-08-24T12:47:49.383Z,16.45
2022-08-24T12:53:30.230Z,21.80
2022-08-24T12:58:55.305Z,16.67
2022-08-24T13:04:31.574Z,17.00
2022-08-24T13:09:36.104Z,16.45
2022-08-24T13:14:39.117Z,12.85
2022-08-24T13:19:45.611Z,20.13
2022-08-24T13:24:58.139Z,19.63
2022-08-24T13:30:18.096Z,16.20
2022-08-24T13:35:58.603Z,17.67
2022-08-24T13:41:22.942Z,14.07
2022-08-24T13:46:50.643Z,16.20
2022-08-24T13:52:15.525Z,15.30
2022-08-24T13:57:35.752Z,20.50
2022-08-24T14:03:01.373Z,12.60
2022-08-24T14:08:10.531Z,17.23
2022-08-24T14:13:47.785Z,13.60
2022-08-24T14:18:56.579Z,14.77
2022-08-24T14:24:11.092Z,15.48
2022-08-24T14:29:19.950Z,13.63
2022-08-24T14:34:28.452Z,12.40
2022-08-24T14:39:58.526Z,19.25
2022-08-24T14:45:10.753Z,11.90
2022-08-24T14:50:22.537Z,16.02
2022-08-24T14:56:00.893Z,20.17
2022-08-24T15:01:42.519Z,16.90
2022-08-24T15:06:54.593Z,22.58
2022-08-24T15:12:10.879Z,16.63
2022-08-24T15:17:22.081Z,19.48
2022-08-24T15:22:37.023Z,21.33
2022-08-24T15:27:42.645Z,26.40
2022-08-24T15:32:53.149Z,21.95
2022-08-24T15:37:56.512Z,17.65
2022-08-24T15:43:04.055Z,14.77
2022-08-24T15:48:06.943Z,18.45
2022-08-24T15:53:36.788Z,16.92
2022-08-24T15:58:39.665Z,21.98
2022-08-24T16:03:42.839Z,16.50
2022-08-24T16:09:00.377Z,21.50
2022-08-24T16:14:03.358Z,18.13
2022-08-24T16:19:18.012Z,26.60
2022-08-24T16:24:20.402Z,20.73
2022-08-24T16:29:35.005Z,13.32
2022-08-24T16:34:41.102Z,21.95
2022-08-24T16:39:43.645Z,18.15
2022-08-24T16:44:46.162Z,20.58
2022-08-24T16:49:49.786Z,19.13
2022-08-24T16:54:52.340Z,13.82
2022-08-24T16:59:55.061Z,22.30
2022-08-24T17:04:57.540Z,20.40
2022-08-24T17:10:02.891Z,19.15
2022-08-24T17:15:06.919Z,21.20
2022-08-24T17:20:11.195Z,21.08
2022-08-24T17:25:13.940Z,17.63
2022-08-24T17:30:20.332Z,16.63
2022-08-24T17:35:23.331Z,16.67
2022-08-24T17:40:27.760Z,17.88
2022-08-24T17:45:30.304Z,18.77
2022-08-24T17:50:32.860Z,14.63
2022-08-24T17:55:35.277Z,23.23
2022-08-24T18:00:38.220Z,22.63
2022-08-24T18:05:41.249Z,16.40
2022-08-24T18:10:43.831Z,22.25
2022-08-24T18:15:46.308Z,18.35
2022-08-24T18:20:48.776Z,23.70
2022-08-24T18:25:51.843Z,29.55
2022-08-24T18:30:55.330Z,29.70
2022-08-24T18:41:39.550Z,23.27
2022-08-24T18:46:42.068Z,29.88
2022-08-24T18:51:45.721Z,27.77
2022-08-24T18:56:50.430Z,23.30
2022-08-24T19:02:16.263Z,22.75
2022-08-24T19:07:18.868Z,28.30
2022-08-24T19:12:22.024Z,17.70
2022-08-24T19:17:25.213Z,22.40
2022-08-24T19:22:28.049Z,22.48
2022-08-24T19:27:31.363Z,26.98
2022-08-24T19:32:39.505Z,24.73
2022-08-24T19:37:43.526Z,30.92
2022-08-24T19:42:49.431Z,29.15
2022-08-24T19:47:52.690Z,27.55
2022-08-24T19:53:01.502Z,21.73
2022-08-24T19:58:09.462Z,25.60
2022-08-24T20:03:12.166Z,19.63
2022-08-24T20:08:15.954Z,21.17
2022-08-24T20:13:18.582Z,20.48
2022-08-24T20:18:25.374Z,23.13
2022-08-24T20:23:29.532Z,35.15
2022-08-24T20:28:59.318Z,27.80
2022-08-24T20:34:02.129Z,29.58
2022-08-24T20:39:11.462Z,20.77
2022-08-24T20:44:14.014Z,27.13
2022-08-24T20:49:19.534Z,24.02
2022-08-24T20:54:22.264Z,28.02
2022-08-24T20:59:24.861Z,31.25
2022-08-24T21:04:27.541Z,24.98
2022-08-24T21:09:31.553Z,23.83
2022-08-24T21:14:34.126Z,28.77
2022-08-24T21:19:36.531Z,27.92
2022-08-24T21:24:39.072Z,25.98
2022-08-24T21:29:41.599Z,23.77
2022-08-24T21:34:45.243Z,20.38
2022-08-24T21:39:48.693Z,19.00
2022-08-24T21:44:51.585Z,21.50
2022-08-24T21:49:54.831Z,21.92
2022-08-24T21:54:57.576Z,28.50
2022-08-24T22:00:00.459Z,22.20
2022-08-24T22:05:02.935Z,20.50
2022-08-24T22:10:07.456Z,23.65
2022-08-24T22:15:13.272Z,27.88
2022-08-24T22:20:23.065Z,23.77
2022-08-24T22:25:26.221Z,24.35
2022-08-24T22:30:28.790Z,29.58
2022-08-24T22:35:31.907Z,28.48
2022-08-24T22:40:41.283Z,24.02
2022-08-24T22:45:43.879Z,26.08
2022-08-24T22:50:46.848Z,22.08
2022-08-24T22:55:49.235Z,23.52
2022-08-24T23:00:51.662Z,20.33
2022-08-24T23:05:54.312Z,22.33
2022-08-24T23:10:57.338Z,25.05
2022-08-24T23:16:01.708Z,21.92
2022-08-24T23:21:04.418Z,23.73
2022-08-24T23:26:09.464Z,21.77
2022-08-24T23:31:18.904Z,22.10
2022-08-24T23:36:24.951Z,19.45
2022-08-24T23:41:31.258Z,20.58
2022-08-24T23:46:34.327Z,19.75
2022-08-24T23:51:37.317Z,20.52
2022-08-24T23:56:43.075Z,15.23
